Time;durP1;ratioP1;P1;durP2;ratioP2;P2;SDS_P1;SDS_P2;PMS_P1;PMS_P2;Temp;Humidity;BMP_temperature;BMP_pressure;BME280_temperature;BME280_humidity;BME280_pressure;Samples;Min_cycle;Max_cycle;Signal;HPM_P1;HPM_P2
2021/04/03 00:00:45;;;;;;;16.10;6.88;;;7.50;71.60;;;;;;4953386;28;20185;-72
2021/04/03 00:03:13;;;;;;;13.45;5.53;;;7.50;71.00;;;;;;4953061;28;20197;-73
2021/04/03 00:05:40;;;;;;;29.58;8.02;;;7.50;71.20;;;;;;4953186;28;20622;-73
2021/04/03 00:08:07;;;;;;;24.98;6.65;;;7.40;71.20;;;;;;4953120;28;20173;-73
2021/04/03 00:10:48;;;;;;;15.48;5.40;;;7.40;71.30;;;;;;4953502;28;20199;-73
2021/04/03 00:13:16;;;;;;;21.40;6.13;;;7.40;71.30;;;;;;4953089;28;20206;-73
2021/04/03 00:15:42;;;;;;;19.13;5.78;;;7.40;71.40;;;;;;4953035;28;20169;-73
2021/04/03 00:18:09;;;;;;;15.20;6.53;;;7.40;71.30;;;;;;4952943;28;20488;-73
2021/04/03 00:20:36;;;;;;;13.77;6.25;;;7.40;70.90;;;;;;4952939;28;20172;-73
2021/04/03 00:23:03;;;;;;;18.23;6.25;;;7.40;71.20;;;;;;4952662;28;20221;-73
2021/04/03 00:25:30;;;;;;;21.48;7.88;;;7.40;71.20;;;;;;4952855;28;20627;-73
2021/04/03 00:27:56;;;;;;;13.55;6.30;;;7.50;71.00;;;;;;4952864;28;20176;-73
2021/04/03 00:30:22;;;;;;;16.67;6.50;;;7.50;70.60;;;;;;4952766;28;20181;-73
2021/04/03 00:32:58;;;;;;;15.57;5.85;;;7.50;71.00;;;;;;4952571;28;20456;-73
2021/04/03 00:35:32;;;;;;;16.00;6.88;;;7.50;70.80;;;;;;4952829;28;20161;-73
2021/04/03 00:37:59;;;;;;;16.17;6.38;;;7.50;70.30;;;;;;4952806;28;20169;-73
2021/04/03 00:40:29;;;;;;;7.55;4.85;;;7.50;70.50;;;;;;4952574;28;20238;-73
2021/04/03 00:43:05;;;;;;;23.52;6.90;;;7.50;69.80;;;;;;4953710;28;20680;-73
2021/04/03 00:45:31;;;;;;;14.77;5.93;;;7.40;70.10;;;;;;4952735;28;20168;-73
2021/04/03 00:47:56;;;;;;;15.93;6.30;;;7.30;70.20;;;;;;4951916;28;20538;-73
2021/04/03 00:50:28;;;;;;;16.37;5.63;;;7.30;70.30;;;;;;4952713;28;20177;-73
2021/04/03 00:52:55;;;;;;;17.30;6.38;;;7.30;70.30;;;;;;4952551;28;20197;-73
2021/04/03 00:55:21;;;;;;;18.42;6.68;;;7.30;70.50;;;;;;4952557;28;20189;-73
2021/04/03 00:57:48;;;;;;;12.33;7.63;;;7.30;70.60;;;;;;4952501;28;20522;-73
2021/04/03 01:00:16;;;;;;;14.70;7.00;;;7.30;70.30;;;;;;4952336;28;20413;-73
2021/04/03 01:02:41;;;;;;;18.77;6.68;;;7.20;69.80;;;;;;4952274;28;20207;-73
2021/04/03 01:05:22;;;;;;;13.53;6.33;;;7.20;70.10;;;;;;4952210;28;20688;-72
2021/04/03 01:07:48;;;;;;;17.58;6.25;;;7.10;70.60;;;;;;4952659;28;20774;-73
2021/04/03 01:10:18;;;;;;;20.15;6.35;;;7.20;70.10;;;;;;4952061;28;20184;-73
2021/04/03 01:13:11;;;;;;;12.30;6.38;;;7.20;70.20;;;;;;4953406;28;20196;-73
2021/04/03 01:15:48;;;;;;;16.40;6.97;;;7.20;69.90;;;;;;4952060;28;20169;-73
2021/04/03 01:18:27;;;;;;;17.58;6.65;;;7.20;69.90;;;;;;4952139;28;20260;-73
2021/04/03 01:21:24;;;;;;;19.77;6.78;;;7.30;69.40;;;;;;4952022;28;20255;-73
2021/04/03 01:24:17;;;;;;;10.95;5.85;;;7.20;69.10;;;;;;4951953;28;20192;-73
2021/04/03 01:26:48;;;;;;;15.75;6.28;;;7.30;69.10;;;;;;4952000;28;20164;-73
2021/04/03 01:29:33;;;;;;;15.07;6.20;;;7.30;68.80;;;;;;4951915;28;20543;-73
2021/04/03 01:32:02;;;;;;;18.83;6.82;;;7.30;68.30;;;;;;4951743;28;20204;-73
2021/04/03 01:34:30;;;;;;;10.15;6.05;;;7.30;68.10;;;;;;4951659;28;20191;-73
2021/04/03 01:37:03;;;;;;;16.08;6.65;;;7.20;68.10;;;;;;4951854;28;20173;-73
2021/04/03 01:39:32;;;;;;;13.32;6.53;;;7.20;68.30;;;;;;4951795;28;20184;-73
2021/04/03 01:42:02;;;;;;;19.98;6.72;;;7.20;68.40;;;;;;4951563;28;20200;-73
2021/04/03 01:44:33;;;;;;;14.15;6.10;;;7.20;68.10;;;;;;4951598;28;20188;-73
2021/04/03 01:47:00;;;;;;;11.95;6.03;;;7.20;68.00;;;;;;4951606;28;20569;-73
2021/04/03 01:49:26;;;;;;;9.77;5.10;;;7.10;67.80;;;;;;4951494;28;20645;-73
2021/04/03 01:51:53;;;;;;;18.42;5.97;;;7.10;67.80;;;;;;4952620;28;20192;-73
2021/04/03 01:54:22;;;;;;;20.65;6.78;;;7.10;67.80;;;;;;4952881;28;20177;-73
2021/04/03 01:56:50;;;;;;;11.90;5.72;;;7.10;67.80;;;;;;4951358;28;20177;-73
2021/04/03 01:59:17;;;;;;;13.32;5.53;;;7.10;67.80;;;;;;4951395;28;20649;-73
2021/04/03 02:01:45;;;;;;;13.25;5.25;;;7.10;67.70;;;;;;4951166;28;20223;-73
2021/04/03 02:04:16;;;;;;;15.20;5.35;;;7.00;67.70;;;;;;4951331;28;20219;-73
2021/04/03 02:06:44;;;;;;;19.48;5.47;;;7.00;67.70;;;;;;4951303;28;20269;-73
2021/04/03 02:09:12;;;;;;;11.30;5.75;;;7.00;67.40;;;;;;4951351;28;20188;-73
2021/04/03 02:11:43;;;;;;;14.48;6.03;;;7.00;67.60;;;;;;4951112;29;20193;-73
2021/04/03 02:14:09;;;;;;;21.45;5.97;;;7.00;67.60;;;;;;4951041;28;20225;-73
2021/04/03 02:16:39;;;;;;;21.65;6.00;;;7.00;67.70;;;;;;4951228;28;20580;-73
2021/04/03 02:19:08;;;;;;;22.50;5.70;;;7.00;67.70;;;;;;4951300;28;20176;-72
2021/04/03 02:21:39;;;;;;;13.52;5.28;;;6.90;67.70;;;;;;4951003;28;20180;-72
2021/04/03 02:24:05;;;;;;;17.45;6.22;;;6.80;68.00;;;;;;4950917;29;20291;-73
2021/04/03 02:26:35;;;;;;;15.65;5.78;;;6.80;68.30;;;;;;4950994;28;20262;-73
2021/04/03 02:29:05;;;;;;;17.90;5.47;;;6.80;68.10;;;;;;4951032;28;20161;-73
2021/04/03 02:31:33;;;;;;;27.85;7.43;;;6.80;67.80;;;;;;4950657;29;20193;-73
2021/04/03 02:33:59;;;;;;;9.63;4.93;;;6.80;68.00;;;;;;4950875;29;20267;-73
2021/04/03 02:36:24;;;;;;;14.00;5.60;;;6.90;68.30;;;;;;4951105;29;20633;-73
2021/04/03 02:38:51;;;;;;;13.13;5.67;;;6.90;68.50;;;;;;4951229;29;20463;-73
2021/04/03 02:41:22;;;;;;;12.85;5.95;;;6.90;69.20;;;;;;4950758;28;20470;-73
2021/04/03 02:44:04;;;;;;;17.65;6.43;;;6.90;69.40;;;;;;4950857;28;20224;-73
2021/04/03 02:46:36;;;;;;;21.42;5.97;;;6.90;69.80;;;;;;4950909;29;20172;-73
2021/04/03 02:49:07;;;;;;;18.50;7.15;;;6.90;69.60;;;;;;4950842;28;20774;-74
2021/04/03 02:51:41;;;;;;;12.70;5.50;;;7.00;69.60;;;;;;4950773;29;20172;-73
2021/04/03 02:54:08;;;;;;;13.32;5.53;;;7.00;69.40;;;;;;4950849;28;20172;-73
2021/04/03 02:56:37;;;;;;;15.05;6.07;;;7.00;69.50;;;;;;4950735;28;20184;-73
2021/04/03 02:59:04;;;;;;;17.38;6.90;;;7.10;69.10;;;;;;4950685;29;20177;-73
2021/04/03 03:01:33;;;;;;;9.57;4.85;;;7.10;68.90;;;;;;4950655;28;20272;-73
2021/04/03 03:04:00;;;;;;;20.65;7.15;;;7.00;69.10;;;;;;4950481;28;20197;-73
2021/04/03 03:06:26;;;;;;;20.50;6.35;;;7.00;69.10;;;;;;4950504;28;20282;-73
2021/04/03 03:08:53;;;;;;;10.88;5.25;;;7.00;69.10;;;;;;4950457;28;20242;-73
2021/04/03 03:11:22;;;;;;;9.23;5.00;;;7.00;69.20;;;;;;4949891;28;20177;-73
2021/04/03 03:13:48;;;;;;;9.07;4.03;;;7.00;68.80;;;;;;4950394;29;20195;-73
2021/04/03 03:16:15;;;;;;;8.73;4.45;;;6.90;69.10;;;;;;4950410;29;20260;-73
2021/04/03 03:18:42;;;;;;;9.82;4.55;;;6.90;68.80;;;;;;4950305;29;20177;-73
2021/04/03 03:21:09;;;;;;;8.85;5.30;;;6.90;68.70;;;;;;4950559;28;20652;-73
2021/04/03 03:23:36;;;;;;;8.32;4.35;;;6.80;68.90;;;;;;4950384;28;20613;-73
2021/04/03 03:26:02;;;;;;;6.53;3.70;;;6.80;69.40;;;;;;4950490;29;20172;-73
2021/04/03 03:28:31;;;;;;;12.45;4.20;;;6.70;69.40;;;;;;4950284;28;20180;-73
2021/04/03 03:30:57;;;;;;;10.48;4.05;;;6.70;69.20;;;;;;4950267;28;20169;-72
2021/04/03 03:33:23;;;;;;;11.93;5.20;;;6.70;69.40;;;;;;4950392;29;20196;-72
2021/04/03 03:35:49;;;;;;;8.70;4.13;;;6.70;69.40;;;;;;4950191;28;20419;-73
2021/04/03 03:38:16;;;;;;;14.20;4.77;;;6.70;68.90;;;;;;4951560;28;20400;-73
2021/04/03 03:40:43;;;;;;;8.52;4.32;;;6.70;69.20;;;;;;4950179;29;20401;-73
2021/04/03 03:43:16;;;;;;;10.05;4.57;;;6.70;69.20;;;;;;4950134;28;20692;-73
2021/04/03 03:45:43;;;;;;;12.27;5.15;;;6.70;69.20;;;;;;4950086;28;20529;-73
2021/04/03 03:48:09;;;;;;;17.98;4.78;;;6.70;69.10;;;;;;4951318;28;20169;-73
2021/04/03 03:50:35;;;;;;;25.40;5.33;;;6.60;69.40;;;;;;4950145;28;20667;-73
2021/04/03 03:53:00;;;;;;;10.70;5.53;;;6.60;69.40;;;;;;4949931;28;20436;-73
2021/04/03 03:55:26;;;;;;;7.30;4.07;;;6.60;69.40;;;;;;4951265;28;20202;-73
2021/04/03 03:57:52;;;;;;;7.20;3.33;;;6.50;69.40;;;;;;4950297;28;20180;-73
2021/04/03 04:00:18;;;;;;;11.87;4.40;;;6.50;69.50;;;;;;4950260;28;20199;-73
2021/04/03 04:02:44;;;;;;;9.93;4.63;;;6.50;69.20;;;;;;4950069;28;20809;-73
2021/04/03 04:05:11;;;;;;;13.20;4.37;;;6.50;69.60;;;;;;4949919;28;20197;-73
2021/04/03 04:07:36;;;;;;;9.65;4.30;;;6.40;69.20;;;;;;4949876;28;20173;-73
2021/04/03 04:10:05;;;;;;;12.87;3.97;;;6.30;69.90;;;;;;4950102;28;20180;-73
2021/04/03 04:12:30;;;;;;;7.18;4.88;;;6.30;69.90;;;;;;4950994;28;20185;-73
2021/04/03 04:14:56;;;;;;;13.10;5.17;;;6.30;69.80;;;;;;4949864;28;20199;-74
2021/04/03 04:17:22;;;;;;;7.17;3.60;;;6.20;69.60;;;;;;4949835;28;20617;-72
2021/04/03 04:19:48;;;;;;;14.27;4.03;;;6.20;70.10;;;;;;4949739;28;20412;-73
2021/04/03 04:22:13;;;;;;;8.27;4.20;;;6.20;70.60;;;;;;4951013;28;20193;-73
2021/04/03 04:24:39;;;;;;;12.83;3.73;;;6.20;70.60;;;;;;4952714;28;20595;-73
2021/04/03 04:27:05;;;;;;;9.70;4.43;;;6.20;70.50;;;;;;4952851;28;20179;-73
2021/04/03 04:29:31;;;;;;;11.15;3.75;;;6.20;70.90;;;;;;4952719;28;20179;-73
2021/04/03 04:31:57;;;;;;;11.53;4.10;;;6.20;70.60;;;;;;5068937;23;20318;-80
2021/04/03 04:34:23;;;;;;;9.67;4.00;;;6.20;70.60;;;;;;5098828;28;20460;-80
2021/04/03 04:36:48;;;;;;;8.30;4.33;;;6.20;70.90;;;;;;5098742;28;20235;-80
2021/04/03 04:39:14;;;;;;;7.43;4.40;;;6.20;71.20;;;;;;5098825;28;20188;-81
2021/04/03 04:41:40;;;;;;;14.27;4.17;;;6.10;71.40;;;;;;5098066;28;20473;-81
2021/04/03 04:44:05;;;;;;;10.43;4.07;;;6.20;71.60;;;;;;5098079;28;20226;-80
2021/04/03 04:46:31;;;;;;;11.47;4.43;;;6.20;71.40;;;;;;5098010;28;20171;-80
2021/04/03 04:48:57;;;;;;;12.55;4.60;;;6.20;71.60;;;;;;5097909;28;20594;-80
2021/04/03 04:51:24;;;;;;;10.13;4.30;;;6.20;71.70;;;;;;5097557;28;20172;-80
2021/04/03 04:53:50;;;;;;;12.38;5.00;;;6.20;71.90;;;;;;5097249;28;20406;-81
2021/04/03 04:56:16;;;;;;;14.90;5.07;;;6.20;71.90;;;;;;5097309;28;20171;-81
2021/04/03 04:58:41;;;;;;;8.80;3.90;;;6.20;71.90;;;;;;5098300;28;20178;-81
2021/04/03 05:01:07;;;;;;;7.77;3.77;;;6.20;71.90;;;;;;5096997;28;20414;-81
2021/04/03 05:03:33;;;;;;;10.93;4.60;;;6.20;72.10;;;;;;5096250;28;20460;-81
2021/04/03 05:05:59;;;;;;;11.17;3.93;;;6.20;71.90;;;;;;5097915;28;20174;-80
2021/04/03 05:08:24;;;;;;;10.73;3.93;;;6.20;72.00;;;;;;5097342;28;20970;-81
2021/04/03 05:10:50;;;;;;;8.70;4.10;;;6.20;72.10;;;;;;5097650;28;20528;-81
2021/04/03 05:13:16;;;;;;;18.63;4.40;;;6.20;72.70;;;;;;5096854;28;20429;-81
2021/04/03 05:15:42;;;;;;;18.90;4.03;;;6.30;72.30;;;;;;5097157;28;20416;-81
2021/04/03 05:18:07;;;;;;;9.27;3.80;;;6.30;72.00;;;;;;5097525;28;20221;-80
2021/04/03 05:20:33;;;;;;;10.13;5.10;;;6.30;72.00;;;;;;5097088;28;20402;-81
2021/04/03 05:22:59;;;;;;;10.60;3.33;;;6.30;72.10;;;;;;5096497;28;20194;-81
2021/04/03 05:25:25;;;;;;;6.73;3.83;;;6.30;72.60;;;;;;5096909;28;20664;-81
2021/04/03 05:27:50;;;;;;;5.33;3.90;;;6.40;72.10;;;;;;5098006;28;20460;-80
2021/04/03 05:30:17;;;;;;;8.60;4.03;;;6.40;71.90;;;;;;5097796;28;20640;-80
2021/04/03 05:32:42;;;;;;;11.77;5.30;;;6.40;72.00;;;;;;5095788;28;20231;-80
2021/04/03 05:35:09;;;;;;;17.10;4.53;;;6.40;72.00;;;;;;5096961;28;20607;-80
2021/04/03 05:37:35;;;;;;;8.85;4.18;;;6.30;72.00;;;;;;5096417;28;20243;-80
2021/04/03 05:40:01;;;;;;;14.43;4.65;;;6.30;72.10;;;;;;5096197;28;20168;-79
2021/04/03 05:42:33;;;;;;;17.48;5.18;;;6.30;72.00;;;;;;5096727;28;20207;-80
2021/04/03 05:45:01;;;;;;;7.15;4.05;;;6.30;72.30;;;;;;5096851;28;20691;-80
2021/04/03 05:47:27;;;;;;;8.82;4.45;;;6.40;72.40;;;;;;5096237;28;20175;-80
2021/04/03 05:49:53;;;;;;;11.90;4.03;;;6.50;71.90;;;;;;5096287;28;20168;-80
2021/04/03 05:52:20;;;;;;;14.45;4.30;;;6.40;71.90;;;;;;5095980;28;20433;-80
2021/04/03 05:54:46;;;;;;;7.55;4.10;;;6.50;72.10;;;;;;5096486;28;20234;-80
2021/04/03 05:57:12;;;;;;;15.33;3.73;;;6.50;72.00;;;;;;5095814;28;20351;-80
2021/04/03 05:59:38;;;;;;;12.83;4.37;;;6.50;72.00;;;;;;5096393;28;20428;-80
2021/04/03 06:02:05;;;;;;;9.50;4.70;;;6.50;71.90;;;;;;5095906;28;20567;-80
2021/04/03 06:04:31;;;;;;;12.63;4.53;;;6.50;72.00;;;;;;5096067;28;20214;-80
2021/04/03 06:06:57;;;;;;;7.43;4.00;;;6.60;71.70;;;;;;5096347;28;20172;-80
2021/04/03 06:09:23;;;;;;;20.75;4.65;;;6.60;71.60;;;;;;5095743;28;20425;-80
2021/04/03 06:11:50;;;;;;;8.20;4.00;;;6.70;71.40;;;;;;5096307;28;20192;-79
2021/04/03 06:14:17;;;;;;;12.90;5.03;;;6.80;71.30;;;;;;5095628;28;20410;-80
2021/04/03 06:16:45;;;;;;;15.07;5.20;;;6.90;70.60;;;;;;5096227;28;20180;-80
2021/04/03 06:19:14;;;;;;;13.15;4.38;;;6.90;70.60;;;;;;5096084;28;20179;-80
2021/04/03 06:22:02;;;;;;;11.50;4.28;;;6.80;70.20;;;;;;5096186;28;20192;-80
2021/04/03 06:24:34;;;;;;;5.85;3.90;;;6.80;70.80;;;;;;5095892;28;20215;-80
2021/04/03 06:27:07;;;;;;;11.57;4.20;;;6.80;70.60;;;;;;5097278;28;20172;-80
2021/04/03 06:29:43;;;;;;;17.58;4.80;;;6.80;70.80;;;;;;5096173;28;20255;-80
2021/04/03 06:32:33;;;;;;;9.88;3.70;;;6.80;70.60;;;;;;5095577;28;20210;-80
2021/04/03 06:34:59;;;;;;;11.50;4.25;;;6.90;70.80;;;;;;5096217;28;20176;-80
2021/04/03 06:37:35;;;;;;;13.57;4.00;;;7.00;70.90;;;;;;5096163;28;20184;-82
2021/04/03 06:40:06;;;;;;;5.15;3.50;;;7.00;70.10;;;;;;5097394;28;20199;-82
2021/04/03 06:42:55;;;;;;;12.13;3.72;;;6.90;70.60;;;;;;5096011;28;20196;-81
2021/04/03 06:45:23;;;;;;;6.45;3.67;;;6.90;70.80;;;;;;5094000;28;20192;-80
2021/04/03 06:47:52;;;;;;;9.35;4.10;;;6.90;70.80;;;;;;5095408;28;20168;-82
2021/04/03 06:50:21;;;;;;;5.85;3.45;;;7.00;70.50;;;;;;5096640;28;20172;-82
2021/04/03 06:52:47;;;;;;;7.85;4.03;;;7.00;70.50;;;;;;5096191;28;20546;-82
2021/04/03 06:55:15;;;;;;;14.82;3.55;;;7.10;70.10;;;;;;5096229;28;20655;-82
2021/04/03 06:57:43;;;;;;;10.75;3.03;;;7.00;70.30;;;;;;5096664;28;20200;-81
2021/04/03 07:00:12;;;;;;;17.38;3.90;;;7.00;70.50;;;;;;5096095;28;20171;-81
2021/04/03 07:02:47;;;;;;;10.13;4.70;;;7.00;70.60;;;;;;5095131;28;20192;-81
2021/04/03 07:05:15;;;;;;;8.88;3.55;;;7.10;70.90;;;;;;5078525;28;20734;-81
2021/04/03 07:07:43;;;;;;;7.03;3.40;;;7.30;70.10;;;;;;5095099;28;20240;-81
2021/04/03 07:10:12;;;;;;;10.48;3.63;;;7.40;69.60;;;;;;5096251;28;20199;-82
2021/04/03 07:12:39;;;;;;;9.55;3.63;;;7.50;69.10;;;;;;5097906;28;20800;-83
2021/04/03 07:15:07;;;;;;;13.55;3.75;;;7.70;68.30;;;;;;5095964;28;20537;-83
2021/04/03 07:17:36;;;;;;;7.50;3.60;;;7.80;68.10;;;;;;5095478;28;20164;-82
2021/04/03 07:20:02;;;;;;;13.38;4.35;;;7.80;67.30;;;;;;5095327;28;20171;-83
2021/04/03 07:22:28;;;;;;;8.47;3.67;;;7.90;67.00;;;;;;5093737;28;20609;-83
2021/04/03 07:24:55;;;;;;;9.15;4.65;;;8.00;66.60;;;;;;5094910;28;20484;-83
2021/04/03 07:27:22;;;;;;;9.48;3.08;;;8.10;66.70;;;;;;5095371;28;20232;-83
2021/04/03 07:29:50;;;;;;;9.30;4.05;;;8.10;66.30;;;;;;5096663;28;20180;-83
2021/04/03 07:32:36;;;;;;;13.68;4.50;;;8.00;66.30;;;;;;5095964;28;20267;-83
2021/04/03 07:35:25;;;;;;;7.78;3.10;;;8.10;66.40;;;;;;5096232;28;20183;-83
2021/04/03 07:37:53;;;;;;;12.90;3.83;;;8.10;65.80;;;;;;5069961;28;20180;-83
2021/04/03 07:40:25;;;;;;;9.57;3.88;;;8.20;65.80;;;;;;5097447;28;20182;-82
2021/04/03 07:42:51;;;;;;;9.68;3.53;;;8.30;65.50;;;;;;5096830;28;20192;-83
2021/04/03 07:45:40;;;;;;;6.93;3.55;;;8.30;64.60;;;;;;5096824;28;20370;-83
2021/04/03 07:48:14;;;;;;;9.23;4.00;;;8.30;65.10;;;;;;5096611;28;20172;-83
2021/04/03 07:50:40;;;;;;;8.73;3.60;;;8.30;65.20;;;;;;5096046;28;20176;-83
2021/04/03 07:53:06;;;;;;;7.47;3.45;;;8.30;65.50;;;;;;5096151;28;20192;-83
2021/04/03 07:55:35;;;;;;;13.45;3.88;;;8.30;64.60;;;;;;5095634;28;20207;-83
2021/04/03 07:58:19;;;;;;;8.55;3.60;;;8.30;65.50;;;;;;5098700;28;20556;-82
2021/04/03 08:00:49;;;;;;;6.93;3.08;;;8.40;65.30;;;;;;5099758;28;20665;-83
2021/04/03 08:03:20;;;;;;;7.18;2.90;;;8.20;65.10;;;;;;5099508;28;20559;-83
2021/04/03 08:05:48;;;;;;;11.90;3.58;;;8.20;64.90;;;;;;5099127;28;20171;-83
2021/04/03 08:08:17;;;;;;;7.93;3.28;;;8.20;64.80;;;;;;5099361;28;20175;-83
2021/04/03 08:10:43;;;;;;;5.95;2.55;;;8.30;65.20;;;;;;5099206;28;20701;-83
2021/04/03 08:13:10;;;;;;;5.97;2.67;;;8.20;64.40;;;;;;5099063;28;20196;-83
2021/04/03 08:15:37;;;;;;;12.75;3.05;;;8.20;64.40;;;;;;5099460;28;20175;-83
2021/04/03 08:18:09;;;;;;;6.88;3.40;;;8.20;64.10;;;;;;5099581;28;20172;-83
2021/04/03 08:20:35;;;;;;;15.55;3.90;;;8.10;64.50;;;;;;5099018;28;20210;-83
2021/04/03 08:23:07;;;;;;;6.10;3.00;;;8.30;64.80;;;;;;5098787;28;20191;-83
2021/04/03 08:25:33;;;;;;;11.13;3.78;;;8.20;63.50;;;;;;5098926;28;20252;-83
2021/04/03 08:28:18;;;;;;;11.95;3.13;;;8.20;63.70;;;;;;5098792;28;20206;-83
2021/04/03 08:30:43;;;;;;;10.20;3.17;;;8.20;63.30;;;;;;5099438;28;20190;-83
2021/04/03 08:33:12;;;;;;;7.10;3.10;;;8.10;63.80;;;;;;5099267;28;20203;-82
2021/04/03 08:35:39;;;;;;;5.93;2.50;;;8.20;63.50;;;;;;5100005;28;20548;-83
2021/04/03 08:38:22;;;;;;;5.60;2.10;;;8.30;63.00;;;;;;5098829;28;20179;-83
2021/04/03 08:40:50;;;;;;;11.10;2.90;;;8.50;62.70;;;;;;5098527;28;20179;-83
2021/04/03 08:43:17;;;;;;;6.78;2.50;;;8.60;62.30;;;;;;5098222;28;20237;-82
2021/04/03 08:45:43;;;;;;;15.82;3.08;;;8.70;62.30;;;;;;5099209;28;20540;-83
2021/04/03 08:48:10;;;;;;;11.17;2.70;;;8.80;61.90;;;;;;5098724;28;20168;-83
2021/04/03 08:50:41;;;;;;;7.50;2.60;;;8.70;61.00;;;;;;5099162;28;20428;-83
2021/04/03 08:53:06;;;;;;;10.18;3.22;;;8.70;60.80;;;;;;5101445;28;20237;-83
2021/04/03 08:55:33;;;;;;;10.37;3.30;;;8.70;61.40;;;;;;5100809;28;20176;-83
2021/04/03 08:58:01;;;;;;;6.38;2.38;;;8.80;61.30;;;;;;5101832;28;20414;-83
2021/04/03 09:00:28;;;;;;;10.23;2.97;;;8.90;60.50;;;;;;5094731;28;20172;-83
2021/04/03 09:02:55;;;;;;;14.48;3.25;;;8.90;60.00;;;;;;5093622;28;20199;-83
2021/04/03 09:05:22;;;;;;;8.90;2.55;;;8.90;60.20;;;;;;5093243;28;20195;-83
2021/04/03 09:07:48;;;;;;;4.78;2.88;;;8.90;60.30;;;;;;5093511;28;20172;-83
2021/04/03 09:10:23;;;;;;;5.45;2.50;;;8.90;60.00;;;;;;5092911;28;20544;-83
2021/04/03 09:12:51;;;;;;;9.57;3.20;;;9.00;60.20;;;;;;5093446;28;20187;-83
2021/04/03 09:15:30;;;;;;;6.35;3.00;;;9.10;59.80;;;;;;5093400;28;20176;-84
2021/04/03 09:17:57;;;;;;;4.68;2.35;;;9.20;60.20;;;;;;5093306;28;20171;-83
2021/04/03 09:20:28;;;;;;;26.33;3.42;;;9.20;59.60;;;;;;5093384;28;20614;-83
2021/04/03 09:23:06;;;;;;;10.30;3.35;;;9.40;59.70;;;;;;5092877;28;20199;-83
2021/04/03 09:25:33;;;;;;;4.75;2.65;;;9.60;59.40;;;;;;5093381;28;20195;-83
2021/04/03 09:28:01;;;;;;;4.07;2.65;;;9.70;58.50;;;;;;5093142;28;20222;-83
2021/04/03 09:30:44;;;;;;;7.05;2.88;;;9.80;58.00;;;;;;5093004;28;20684;-83
2021/04/03 09:33:18;;;;;;;16.85;3.25;;;9.90;58.40;;;;;;5093005;28;20653;-82
2021/04/03 09:35:45;;;;;;;7.00;3.05;;;10.00;58.40;;;;;;5093083;28;20194;-82
2021/04/03 09:38:11;;;;;;;8.77;3.00;;;10.00;58.30;;;;;;5093511;28;20705;-82
2021/04/03 09:40:45;;;;;;;8.70;3.38;;;10.10;57.40;;;;;;5092801;28;20168;-83
2021/04/03 09:43:13;;;;;;;4.22;3.10;;;9.90;57.50;;;;;;5092902;28;20310;-82
2021/04/03 09:45:38;;;;;;;4.45;2.55;;;9.90;58.00;;;;;;5092757;28;20210;-82
2021/04/03 09:48:07;;;;;;;8.50;2.67;;;9.80;56.20;;;;;;5092594;28;20176;-83
2021/04/03 09:50:33;;;;;;;11.40;3.55;;;9.80;56.00;;;;;;5092641;28;20810;-82
2021/04/03 09:53:06;;;;;;;16.63;3.10;;;9.90;56.80;;;;;;5092116;28;20280;-82
2021/04/03 09:55:32;;;;;;;7.05;2.88;;;10.00;56.00;;;;;;5092654;28;20524;-83
2021/04/03 09:57:58;;;;;;;7.55;2.95;;;10.00;56.70;;;;;;5092619;28;20255;-83
2021/04/03 10:00:24;;;;;;;5.70;2.67;;;10.30;56.40;;;;;;5092397;28;20573;-83
2021/04/03 10:02:49;;;;;;;4.93;2.88;;;10.70;55.80;;;;;;5093167;28;20198;-83
2021/04/03 10:05:15;;;;;;;5.93;2.87;;;11.00;55.00;;;;;;5094880;28;20286;-83
2021/04/03 10:07:41;;;;;;;13.53;2.80;;;11.40;54.20;;;;;;5096293;28;20267;-83
2021/04/03 10:10:08;;;;;;;8.27;3.03;;;11.60;52.80;;;;;;5096988;28;20175;-84
2021/04/03 10:12:34;;;;;;;7.78;3.90;;;11.70;52.60;;;;;;5097579;28;20594;-83
2021/04/03 10:14:59;;;;;;;7.57;3.13;;;11.60;52.40;;;;;;5097936;28;20176;-84
2021/04/03 10:17:25;;;;;;;9.67;2.80;;;11.70;51.90;;;;;;5097070;28;20547;-83
2021/04/03 10:19:51;;;;;;;4.97;3.57;;;11.90;50.90;;;;;;5097230;28;20927;-84
2021/04/03 10:22:17;;;;;;;6.77;3.57;;;11.80;50.50;;;;;;5096000;28;20211;-83
2021/04/03 10:24:42;;;;;;;5.90;2.70;;;11.70;51.20;;;;;;5097738;28;20225;-83
2021/04/03 10:27:08;;;;;;;6.23;3.30;;;11.50;51.50;;;;;;5097604;28;20164;-83
2021/04/03 10:29:34;;;;;;;12.20;3.65;;;11.60;52.60;;;;;;5097943;28;20254;-83
2021/04/03 10:32:00;;;;;;;11.10;3.83;;;11.60;51.90;;;;;;5098278;28;20239;-83
2021/04/03 10:34:26;;;;;;;5.07;2.70;;;11.60;51.90;;;;;;5102558;28;20933;-83
2021/04/03 10:36:51;;;;;;;7.67;3.00;;;11.60;52.10;;;;;;5102779;28;20528;-85
2021/04/03 10:39:17;;;;;;;9.40;3.70;;;11.70;50.90;;;;;;5103084;28;20798;-85
2021/04/03 10:41:43;;;;;;;16.20;3.57;;;11.50;51.90;;;;;;5095624;28;20571;-83
2021/04/03 10:44:09;;;;;;;4.57;2.67;;;11.40;52.50;;;;;;5101948;28;20490;-83
2021/04/03 10:46:35;;;;;;;9.00;3.43;;;11.30;52.40;;;;;;5102178;28;20214;-80
2021/04/03 10:49:00;;;;;;;9.60;3.43;;;11.20;52.80;;;;;;5101760;28;20414;-82
2021/04/03 10:51:26;;;;;;;9.50;2.37;;;11.40;52.20;;;;;;5101368;28;20429;-81
2021/04/03 10:53:52;;;;;;;7.33;2.70;;;11.50;51.90;;;;;;5099490;28;20433;-79
2021/04/03 10:56:18;;;;;;;4.97;2.43;;;11.40;51.70;;;;;;5092107;28;20427;-81
2021/04/03 10:58:45;;;;;;;14.10;4.10;;;11.50;51.20;;;;;;5090040;28;20933;-81
2021/04/03 11:01:11;;;;;;;20.50;3.00;;;11.50;51.50;;;;;;5097470;28;20651;-81
2021/04/03 11:03:38;;;;;;;10.88;3.08;;;11.60;52.20;;;;;;5092891;28;20188;-82
2021/04/03 11:06:04;;;;;;;14.65;3.15;;;11.90;51.50;;;;;;5100968;28;20198;-82
2021/04/03 11:08:30;;;;;;;3.80;2.70;;;12.00;50.30;;;;;;5099222;28;20535;-82
2021/04/03 11:10:56;;;;;;;5.22;3.00;;;12.00;50.00;;;;;;5101602;28;20512;-83
2021/04/03 11:13:22;;;;;;;7.40;2.75;;;12.10;50.50;;;;;;5100944;28;20188;-83
2021/04/03 11:15:48;;;;;;;4.73;2.40;;;12.30;49.00;;;;;;5099096;28;20175;-83
2021/04/03 11:18:15;;;;;;;6.30;2.67;;;12.20;49.80;;;;;;5099405;28;20456;-84
2021/04/03 11:20:41;;;;;;;8.82;3.05;;;12.30;49.80;;;;;;5101579;28;20171;-84
2021/04/03 11:23:06;;;;;;;8.00;3.03;;;12.20;48.10;;;;;;5099355;28;20258;-84
2021/04/03 11:25:33;;;;;;;5.50;2.67;;;11.90;47.80;;;;;;5093586;28;20278;-84
2021/04/03 11:28:00;;;;;;;12.15;3.20;;;11.70;48.20;;;;;;5094878;28;20229;-83
2021/04/03 11:30:26;;;;;;;10.27;3.08;;;11.50;49.20;;;;;;5094047;28;20168;-84
2021/04/03 11:32:52;;;;;;;10.05;3.30;;;11.50;49.60;;;;;;5096984;28;20353;-84
2021/04/03 11:35:20;;;;;;;8.60;2.60;;;11.50;49.40;;;;;;5099067;28;20176;-84
2021/04/03 11:37:46;;;;;;;5.38;2.13;;;11.90;49.00;;;;;;5098661;28;20406;-84
2021/04/03 11:40:13;;;;;;;9.35;3.58;;;12.50;47.40;;;;;;5098547;28;20202;-84
2021/04/03 11:42:40;;;;;;;6.38;3.15;;;12.60;47.00;;;;;;5100471;28;20215;-82
2021/04/03 11:45:07;;;;;;;6.20;2.63;;;12.30;47.30;;;;;;5099860;28;20207;-82
2021/04/03 11:47:34;;;;;;;5.72;3.05;;;12.30;48.40;;;;;;5099438;28;20188;-82
2021/04/03 11:50:00;;;;;;;9.05;3.15;;;12.40;47.30;;;;;;5099815;28;20168;-81
2021/04/03 11:52:28;;;;;;;8.60;2.70;;;12.30;47.40;;;;;;5099855;28;20192;-81
2021/04/03 11:54:54;;;;;;;5.22;3.00;;;12.20;47.30;;;;;;5099729;28;20229;-80
2021/04/03 11:57:20;;;;;;;10.33;4.27;;;12.20;46.50;;;;;;5100371;28;20179;-81
2021/04/03 11:59:46;;;;;;;6.17;3.00;;;11.80;48.20;;;;;;5099414;28;20182;-82
2021/04/03 12:02:12;;;;;;;6.80;3.20;;;11.70;48.70;;;;;;5099492;28;20434;-82
2021/04/03 12:04:38;;;;;;;8.37;3.67;;;11.70;49.20;;;;;;5099073;28;20554;-83
2021/04/03 12:07:04;;;;;;;7.10;3.20;;;11.60;49.10;;;;;;5095518;28;20404;-83
2021/04/03 12:09:30;;;;;;;5.80;2.90;;;11.60;49.50;;;;;;5095474;28;20176;-83
2021/04/03 12:11:55;;;;;;;5.70;2.43;;;11.60;48.40;;;;;;5094742;28;20195;-83
2021/04/03 12:14:21;;;;;;;8.20;3.33;;;11.70;49.80;;;;;;5095251;28;20933;-83
2021/04/03 12:16:47;;;;;;;10.80;3.10;;;12.20;48.60;;;;;;5095210;28;20658;-83
2021/04/03 12:19:13;;;;;;;11.93;2.67;;;12.80;47.30;;;;;;5095598;28;20179;-83
2021/04/03 12:21:39;;;;;;;6.30;2.30;;;13.00;45.80;;;;;;5094744;28;20603;-83
2021/04/03 12:24:05;;;;;;;3.87;2.60;;;13.00;45.30;;;;;;5094658;28;20208;-83
2021/04/03 12:26:31;;;;;;;9.07;3.08;;;13.00;45.40;;;;;;5094773;28;20921;-83
2021/04/03 12:28:57;;;;;;;5.80;3.00;;;12.80;44.50;;;;;;5094759;28;20255;-83
2021/04/03 12:31:23;;;;;;;3.23;2.90;;;12.50;45.60;;;;;;5094293;28;20221;-83
2021/04/03 12:33:49;;;;;;;6.80;2.87;;;12.30;46.00;;;;;;5095000;28;20438;-83
2021/04/03 12:36:15;;;;;;;6.57;2.90;;;12.30;46.20;;;;;;5095016;28;20406;-83
2021/04/03 12:38:40;;;;;;;5.93;2.37;;;12.20;46.30;;;;;;5095056;28;20823;-83
2021/04/03 12:41:06;;;;;;;7.33;2.90;;;12.10;47.50;;;;;;5094920;28;20413;-83
2021/04/03 12:43:32;;;;;;;9.53;2.60;;;12.10;45.30;;;;;;5093268;28;20188;-83
2021/04/03 12:45:58;;;;;;;2.80;2.30;;;12.00;45.80;;;;;;5094891;28;20502;-83
2021/04/03 12:48:24;;;;;;;4.20;2.20;;;12.10;46.20;;;;;;5094493;28;20433;-83
2021/04/03 12:50:50;;;;;;;8.03;2.90;;;12.30;45.80;;;;;;5094677;28;20421;-83
2021/04/03 12:53:17;;;;;;;12.60;3.40;;;12.40;44.60;;;;;;5094688;28;20437;-83